createdAt,value
2022-08-27T15:29:24.934Z,5.70
2022-08-27T15:32:30.000Z,5.60
2022-08-27T15:35:33.579Z,5.27
2022-08-27T15:38:36.444Z,6.50
2022-08-27T15:42:05.294Z,5.80
2022-08-27T15:45:06.025Z,5.20
2022-08-27T15:48:09.000Z,5.60
2022-08-27T15:51:13.595Z,6.20
2022-08-27T15:54:16.436Z,5.63
2022-08-27T15:57:20.310Z,6.90
2022-08-27T16:00:25.542Z,6.93
2022-08-27T16:03:35.510Z,6.87
2022-08-27T16:06:39.148Z,6.90
2022-08-27T16:09:42.130Z,6.60
2022-08-27T16:12:45.640Z,7.70
2022-08-27T16:15:50.454Z,6.70
2022-08-27T16:18:53.430Z,6.77
2022-08-27T16:21:56.410Z,7.07
2022-08-27T16:24:59.198Z,6.23
2022-08-27T16:28:02.050Z,6.07
2022-08-27T16:31:06.559Z,6.50
2022-08-27T16:34:17.755Z,6.67
2022-08-27T16:37:20.435Z,6.53
2022-08-27T16:40:23.315Z,5.97
2022-08-27T16:43:28.663Z,7.30
2022-08-27T16:46:32.746Z,5.77
2022-08-27T16:49:52.962Z,5.37
2022-08-27T16:52:56.288Z,5.50
2022-08-27T16:56:00.293Z,5.87
2022-08-27T16:59:03.123Z,7.43
2022-08-27T17:02:13.237Z,7.33
2022-08-27T17:05:34.079Z,7.10
2022-08-27T17:08:42.973Z,6.53
2022-08-27T17:11:55.356Z,6.93
2022-08-27T17:15:00.651Z,8.07
2022-08-27T17:18:05.093Z,7.10
2022-08-27T17:21:07.874Z,6.93
2022-08-27T17:24:12.885Z,7.10
2022-08-27T17:27:17.890Z,7.37
2022-08-27T17:30:21.417Z,7.27
2022-08-27T17:33:29.306Z,7.43
2022-08-27T17:36:33.044Z,9.13
2022-08-27T17:39:35.888Z,8.10
2022-08-27T17:42:40.868Z,8.17
2022-08-27T17:45:43.856Z,8.67
2022-08-27T17:48:48.163Z,9.30
2022-08-27T17:51:55.808Z,9.57
2022-08-27T17:54:59.996Z,9.53
2022-08-27T17:58:03.011Z,9.70
2022-08-27T18:01:06.212Z,9.23
2022-08-27T18:04:15.931Z,9.67
2022-08-27T18:07:19.617Z,8.60
2022-08-27T18:10:25.359Z,10.83
2022-08-27T18:13:29.187Z,10.83
2022-08-27T18:16:32.350Z,11.00
2022-08-27T18:19:37.760Z,11.33
2022-08-27T18:22:43.358Z,10.73
2022-08-27T18:25:51.785Z,9.70
2022-08-27T18:28:56.109Z,11.20
2022-08-27T18:31:59.000Z,10.70
2022-08-27T18:35:10.788Z,9.90
2022-08-27T18:38:14.112Z,12.03
2022-08-27T18:41:17.454Z,11.07
2022-08-27T18:44:20.389Z,11.13
2022-08-27T18:47:23.119Z,11.57
2022-08-27T18:50:28.554Z,11.90
2022-08-27T18:53:34.369Z,10.93
2022-08-27T18:56:37.571Z,9.87
2022-08-27T18:59:40.451Z,11.07
2022-08-27T19:02:45.382Z,11.50
2022-08-27T19:05:54.731Z,11.43
2022-08-27T19:08:58.215Z,12.70
2022-08-27T19:12:00.944Z,12.03
2022-08-27T19:15:04.154Z,12.07
2022-08-27T19:18:09.312Z,13.60
2022-08-27T19:21:14.209Z,13.83
2022-08-27T19:24:17.209Z,13.80
2022-08-27T19:27:25.049Z,13.93
2022-08-27T19:30:28.133Z,14.93
2022-08-27T19:33:34.503Z,13.77
2022-08-27T19:36:42.731Z,12.63
2022-08-27T19:39:46.894Z,12.27
2022-08-27T19:42:50.185Z,13.20
2022-08-27T19:45:53.551Z,12.37
2022-08-27T19:48:58.356Z,11.07
2022-08-27T19:52:06.203Z,10.30
2022-08-27T19:55:14.552Z,9.47
2022-08-27T19:58:19.784Z,10.80
2022-08-27T20:01:22.979Z,10.97
2022-08-27T20:04:29.188Z,10.40
2022-08-27T20:07:37.583Z,11.17
2022-08-27T20:10:40.347Z,11.17
2022-08-27T20:13:50.390Z,11.73
2022-08-27T20:16:53.696Z,12.43
2022-08-27T20:19:59.239Z,12.33
2022-08-27T20:23:07.745Z,14.10
2022-08-27T20:26:10.556Z,14.10
2022-08-27T20:29:14.901Z,14.23
2022-08-27T20:32:29.849Z,15.30
2022-08-27T20:35:34.979Z,14.00
2022-08-27T20:38:40.083Z,15.23
2022-08-27T20:41:42.915Z,14.23
2022-08-27T20:44:47.755Z,13.13
2022-08-27T20:47:52.864Z,12.83
2022-08-27T20:50:56.239Z,13.80
2022-08-27T20:54:01.043Z,14.50
2022-08-27T20:57:04.797Z,14.67
2022-08-27T21:00:22.392Z,15.13
2022-08-27T21:03:25.619Z,14.70
2022-08-27T21:06:32.972Z,15.83
2022-08-27T21:09:55.611Z,14.63
2022-08-27T21:13:04.555Z,14.23
2022-08-27T21:16:08.650Z,14.60
2022-08-27T21:19:11.411Z,14.90
2022-08-27T21:22:14.843Z,14.63
2022-08-27T21:25:19.003Z,13.17
2022-08-27T21:28:21.807Z,12.70
2022-08-27T21:31:25.599Z,12.47
2022-08-27T21:34:30.954Z,13.03
2022-08-27T21:37:33.946Z,12.83
2022-08-27T21:40:38.089Z,13.93
2022-08-27T21:43:41.192Z,14.53
2022-08-27T21:46:44.313Z,13.40
2022-08-27T21:49:47.038Z,14.00
2022-08-27T21:52:50.012Z,15.97
2022-08-27T21:55:54.551Z,14.67
2022-08-27T21:58:57.692Z,14.83
2022-08-27T22:02:01.313Z,14.70
2022-08-27T22:05:04.772Z,14.53
2022-08-27T22:08:08.012Z,13.97
2022-08-27T22:11:13.467Z,14.03
2022-08-27T22:14:16.529Z,12.70
2022-08-27T22:17:19.675Z,11.77
2022-08-27T22:20:23.315Z,11.37
2022-08-27T22:23:28.057Z,11.87
2022-08-27T22:26:32.932Z,10.90
2022-08-27T22:29:35.743Z,11.73
2022-08-27T22:32:38.874Z,11.10
2022-08-27T22:35:42.017Z,11.03
2022-08-27T22:38:45.194Z,10.97
2022-08-27T22:41:51.889Z,10.13
2022-08-27T22:44:55.174Z,10.67
2022-08-27T22:47:58.015Z,11.43
2022-08-27T22:51:01.166Z,11.33
2022-08-27T22:54:04.466Z,10.50
2022-08-27T22:57:10.501Z,10.53
2022-08-27T23:00:17.666Z,11.30
2022-08-27T23:03:20.448Z,11.03
2022-08-27T23:06:23.669Z,10.70
2022-08-27T23:09:26.813Z,9.77
2022-08-27T23:12:30.854Z,10.60
2022-08-27T23:15:34.385Z,10.47
2022-08-27T23:18:38.557Z,10.97
2022-08-27T23:21:41.899Z,10.93
2022-08-27T23:25:03.697Z,11.43
2022-08-27T23:28:12.288Z,11.63
2022-08-27T23:31:17.394Z,11.37
2022-08-27T23:34:21.475Z,11.00
2022-08-27T23:37:25.216Z,11.43
2022-08-27T23:40:28.412Z,10.40
2022-08-27T23:43:32.646Z,11.50
2022-08-27T23:46:36.409Z,10.83
2022-08-27T23:49:40.107Z,11.30
2022-08-27T23:52:43.748Z,10.70
2022-08-27T23:55:46.481Z,11.07
2022-08-27T23:58:50.630Z,11.33
